Weather History for KLKV - April, 2014

Change the Weather History Date:

Tuesday, April 15, 2014

  Actual Average Record
Temperature  
Mean Temperature 48 °F -  
Max Temperature 60 °F 57 °F 80 °F (1949)
Min Temperature 35 °F 31 °F 15 °F (1982)
Degree Days  
Heating Degree Days 18    
Moisture  
Dew Point 26 °F    
Average Humidity 47    
Maximum Humidity 87    
Minimum Humidity 22    
Precipitation  
Precipitation 0.00 in - - ()
Sea Level Pressure  
Sea Level Pressure 30.07 in    
Wind  
Wind Speed 7 mph (North)    
Max Wind Speed 14 mph    
Max Gust Speed 18 mph    
Visibility 10 miles    
Events      
Averages and records for this station are not official NWS values.
T = Trace of Precipitation, MM = Missing Value Source: NWS Daily Summary

Daily Weather History Graph

Daily Weather History Graph

Search for Another Location

Airport or City:

Trip Planner

Search our weather history database for the weather conditions in past years. The results will help you decide how hot, cold, wet, or windy it might be!

Date:

Astronomy

Apr. 15, 2014 Rise Set
Actual Time 6:20 AM PDT 7:43 PM PDT
Civil Twilight 5:51 AM PDT 8:12 PM PDT
Nautical Twilight 5:16 AM PDT 8:47 PM PDT
Astronomical Twilight 4:39 AM PDT 9:24 PM PDT
Moon 8:30 PM PDT (4/15) 6:31 AM PDT (4/15)
Length of Visible Light 14h 20m
Length of Day
13h 22m
Full, 100% of the Moon is Illuminated
Apr 15
Full
Apr 22
Last Quarter
Apr 28
New
May 6
First Quarter
May 14
Full

Hourly Weather History & Observations

Time (PDT) Temp. Windchill Dew Point Humidity Pressure Visibility Wind Dir Wind Speed Gust Speed Precip Events Conditions
12:15 AM 41.0 °F 35.8 °F 26.6 °F 57% 30.11 in 10.0 mi SE 8.1 mph - N/A   Clear
12:35 AM 42.8 °F 39.3 °F 28.4 °F 57% 30.10 in 10.0 mi SSW 5.8 mph - N/A   Clear
12:55 AM 39.2 °F 35.0 °F 24.8 °F 56% 30.10 in 10.0 mi ESE 5.8 mph - N/A   Clear
1:15 AM 39.2 °F 35.0 °F 30.2 °F 70% 30.10 in 10.0 mi SSE 5.8 mph - N/A   Clear
1:35 AM 39.2 °F 34.2 °F 28.4 °F 65% 30.10 in 10.0 mi South 6.9 mph - N/A   Clear
1:55 AM 37.4 °F 32.1 °F 24.8 °F 60% 30.09 in 10.0 mi SSW 6.9 mph - N/A   Clear
2:15 AM 37.4 °F 32.8 °F 24.8 °F 60% 30.09 in 10.0 mi SSE 5.8 mph - N/A   Clear
2:35 AM 37.4 °F 32.1 °F 24.8 °F 60% 30.09 in 10.0 mi SSE 6.9 mph - N/A   Clear
2:55 AM 35.6 °F 31.7 °F 30.2 °F 81% 30.08 in 10.0 mi SE 4.6 mph - N/A   Clear
3:15 AM 37.4 °F 33.8 °F 28.4 °F 70% 30.09 in 10.0 mi SE 4.6 mph - N/A   Clear
3:35 AM 39.2 °F 34.2 °F 30.2 °F 70% 30.09 in 10.0 mi SSE 6.9 mph - N/A   Clear
3:55 AM 39.2 °F 33.6 °F 32.0 °F 75% 30.09 in 10.0 mi SE 8.1 mph - N/A   Clear
4:15 AM 41.0 °F 35.2 °F 32.0 °F 70% 30.08 in 10.0 mi SE 9.2 mph - N/A   Clear
4:35 AM 42.8 °F 39.3 °F 33.8 °F 70% 30.08 in 10.0 mi SSE 5.8 mph - N/A   Clear
4:55 AM 41.0 °F 35.2 °F 32.0 °F 70% 30.08 in 10.0 mi SSE 9.2 mph - N/A   Clear
5:15 AM 42.8 °F 40.1 °F 32.0 °F 66% 30.07 in 10.0 mi South 4.6 mph - N/A   Clear
5:35 AM 41.0 °F 36.4 °F 30.2 °F 65% 30.07 in 10.0 mi South 6.9 mph - N/A   Clear
5:55 AM 39.2 °F 33.6 °F 30.2 °F 70% 30.07 in 10.0 mi SSE 8.1 mph - N/A   Clear
6:15 AM 35.6 °F - 28.4 °F 75% 30.07 in 10.0 mi Calm Calm - N/A   Clear
6:35 AM 35.6 °F - 26.6 °F 70% 30.07 in 10.0 mi Calm Calm - N/A   Clear
6:55 AM 35.6 °F 32.8 °F 28.4 °F 75% 30.08 in 10.0 mi NNW 3.5 mph - N/A   Clear
7:15 AM 35.6 °F 32.8 °F 30.2 °F 81% 30.08 in 9.0 mi East 3.5 mph - N/A   Clear
7:35 AM 37.4 °F - 33.8 °F 87% 30.09 in 10.0 mi Calm Calm - N/A   Clear
7:55 AM 42.8 °F 39.3 °F 33.8 °F 70% 30.09 in 10.0 mi SW 5.8 mph - N/A   Clear
8:15 AM 42.8 °F 40.1 °F 32.0 °F 66% 30.10 in 10.0 mi NW 4.6 mph - N/A   Clear
8:35 AM 44.6 °F 42.2 °F 32.0 °F 61% 30.10 in 10.0 mi NE 4.6 mph - N/A   Clear
8:55 AM 46.4 °F - 33.8 °F 62% 30.09 in 10.0 mi Calm Calm - N/A   Clear
9:15 AM 50.0 °F - 30.2 °F 47% 30.10 in 10.0 mi WSW 4.6 mph - N/A   Clear
9:55 AM 48.2 °F - 30.2 °F 50% 30.11 in 10.0 mi North 8.1 mph - N/A   Clear
10:15 AM 50.0 °F - 32.0 °F 50% 30.11 in 10.0 mi North 8.1 mph - N/A   Clear
10:55 AM 53.6 °F - 24.8 °F 33% 30.11 in 10.0 mi WNW 4.6 mph - N/A   Clear
11:15 AM 55.4 °F - 28.4 °F 36% 30.11 in 10.0 mi WNW 5.8 mph - N/A   Clear
11:35 AM 55.4 °F - 26.6 °F 33% 30.10 in 10.0 mi NNE 3.5 mph - N/A   Clear
11:55 AM 55.4 °F - 30.2 °F 38% 30.10 in 10.0 mi WNW 4.6 mph - N/A   Clear
12:15 PM 57.2 °F - 30.2 °F 36% 30.09 in 10.0 mi SSW 5.8 mph - N/A   Clear
12:35 PM 55.4 °F - 28.4 °F 36% 30.09 in 10.0 mi SE 6.9 mph - N/A   Clear
12:55 PM 57.2 °F - 28.4 °F 33% 30.09 in 10.0 mi SE 5.8 mph - N/A   Clear
1:15 PM 57.2 °F - 28.4 °F 33% 30.08 in 10.0 mi NE 6.9 mph - N/A   Partly Cloudy
1:35 PM 57.2 °F - 28.4 °F 33% 30.08 in 10.0 mi NW 3.5 mph - N/A   Partly Cloudy
1:55 PM 57.2 °F - 28.4 °F 33% 30.08 in 10.0 mi NNE 5.8 mph - N/A   Scattered Clouds
2:15 PM 57.2 °F - 28.4 °F 33% 30.07 in 10.0 mi North 10.4 mph - N/A   Scattered Clouds
2:35 PM 59.0 °F - 28.4 °F 31% 30.07 in 10.0 mi NW 9.2 mph - N/A   Clear
2:55 PM 59.0 °F - 24.8 °F 27% 30.07 in 10.0 mi NNE 6.9 mph - N/A   Clear
3:15 PM 60.8 °F - 24.8 °F 25% 30.06 in 10.0 mi Calm Calm - N/A   Clear
3:35 PM 59.0 °F - 24.8 °F 27% 30.05 in 10.0 mi NNE 5.8 mph - N/A   Clear
3:55 PM 60.8 °F - 24.8 °F 25% 30.05 in 10.0 mi NNE 9.2 mph - N/A   Clear
4:15 PM 60.8 °F - 23.0 °F 23% 30.04 in 10.0 mi North 5.8 mph - N/A   Clear
4:35 PM 60.8 °F - 21.2 °F 22% 30.03 in 10.0 mi North 13.8 mph - N/A   Clear
4:55 PM 60.8 °F - 21.2 °F 22% 30.03 in 10.0 mi North 10.4 mph 16.1 mph N/A   Clear
5:15 PM 59.0 °F - 19.4 °F 22% 30.03 in 10.0 mi North 11.5 mph 18.4 mph N/A   Clear
5:35 PM 59.0 °F - 19.4 °F 22% 30.03 in 10.0 mi North 11.5 mph 17.3 mph N/A   Clear
5:55 PM 57.2 °F - 19.4 °F 23% 30.03 in 10.0 mi North 11.5 mph - N/A   Clear
6:15 PM 55.4 °F - 19.4 °F 25% 30.03 in 10.0 mi North 10.4 mph - N/A   Clear
6:35 PM 55.4 °F - 19.4 °F 25% 30.02 in 10.0 mi North 11.5 mph - N/A   Clear
6:55 PM 53.6 °F - 21.2 °F 28% 30.03 in 10.0 mi North 9.2 mph - N/A   Clear
7:15 PM 51.8 °F - 21.2 °F 30% 30.03 in 10.0 mi North 6.9 mph - N/A   Clear
7:35 PM 48.2 °F - 21.2 °F 34% 30.02 in 10.0 mi North 8.1 mph - N/A   Clear
7:55 PM 46.4 °F 42.4 °F 23.0 °F 40% 30.02 in 10.0 mi North 8.1 mph - N/A   Clear
8:15 PM 46.4 °F 41.9 °F 23.0 °F 40% 30.03 in 10.0 mi North 9.2 mph - N/A   Clear
8:35 PM 44.6 °F 40.2 °F 21.2 °F 39% 30.03 in 10.0 mi North 8.1 mph - N/A   Partly Cloudy
8:55 PM 44.6 °F 40.7 °F 21.2 °F 39% 30.03 in 10.0 mi North 6.9 mph - N/A   Clear
9:15 PM 42.8 °F 37.0 °F 19.4 °F 39% 30.03 in 10.0 mi North 10.4 mph - N/A   Clear
9:35 PM 44.6 °F 39.2 °F 17.6 °F 34% 30.04 in 10.0 mi North 10.4 mph - N/A   Clear
9:55 PM 44.6 °F 38.4 °F 19.4 °F 37% 30.04 in 10.0 mi NNW 12.7 mph - N/A   Mostly Cloudy
10:15 PM 44.6 °F 38.8 °F 19.4 °F 37% 30.04 in 10.0 mi NNW 11.5 mph - N/A   Overcast
10:35 PM 44.6 °F 38.8 °F 21.2 °F 39% 30.04 in 10.0 mi NNW 11.5 mph - N/A   Overcast
10:55 PM 44.6 °F 38.8 °F 21.2 °F 39% 30.04 in 10.0 mi NNW 11.5 mph - N/A   Overcast
11:15 PM 44.6 °F 40.2 °F 21.2 °F 39% 30.04 in 10.0 mi NNW 8.1 mph - N/A   Overcast
11:35 PM 44.6 °F 39.7 °F 21.2 °F 39% 30.05 in 10.0 mi NNW 9.2 mph - N/A   Overcast
11:55 PM 44.6 °F 38.8 °F 21.2 °F 39% 30.05 in 10.0 mi North 11.5 mph - N/A   Overcast